Time;durP1;ratioP1;P1;durP2;ratioP2;P2;SDS_P1;SDS_P2;PMS_P1;PMS_P2;Temp;Humidity;BMP_temperature;BMP_pressure;BME280_temperature;BME280_humidity;BME280_pressure;Samples;Min_cycle;Max_cycle;Signal;HPM_P1;HPM_P2
2022/11/28 00:02:06;;;;;;;;;;;;;;;;;;5042360;28;19959;-85
2022/11/28 00:04:32;;;;;;;;;;;;;;;;;;5041439;28;19925;-85
2022/11/28 00:06:58;;;;;;;;;;;;;;;;;;5035825;28;19964;-86
2022/11/28 00:09:25;;;;;;;;;;;;;;;;;;5053741;28;20315;-81
2022/11/28 00:11:51;;;;;;;;;;;;;;;;;;5039146;28;20335;-82
2022/11/28 00:14:17;;;;;;;;;;;;;;;;;;5054566;28;19983;-84
2022/11/28 00:16:43;;;;;;;;;;;;;;;;;;5023367;28;20346;-84
2022/11/28 00:19:09;;;;;;;;;;;;;;;;;;5042112;28;19960;-84
2022/11/28 00:21:36;;;;;;;;;;;;;;;;;;5033365;28;20010;-84
2022/11/28 00:24:02;;;;;;;;;;;;;;;;;;5037460;28;19955;-85
2022/11/28 00:26:28;;;;;;;;;;;;;;;;;;5026429;28;19952;-85
2022/11/28 00:28:54;;;;;;;;;;;;;;;;;;5054328;28;19983;-85
2022/11/28 00:31:20;;;;;;;;;;;;;;;;;;5022828;28;19960;-85
2022/11/28 00:33:47;;;;;;;;;;;;;;;;;;5038324;28;20446;-85
2022/11/28 00:36:13;;;;;;;;;;;;;;;;;;5043810;28;19960;-86
2022/11/28 00:38:39;;;;;;;;;;;;;;;;;;5054735;28;19921;-78
2022/11/28 00:41:05;;;;;;;;;;;;;;;;;;5042962;28;20363;-85
2022/11/28 00:43:32;;;;;;;;;;;;;;;;;;5034366;28;20361;-84
2022/11/28 00:45:58;;;;;;;;;;;;;;;;;;5044410;28;19921;-85
2022/11/28 00:48:24;;;;;;;;;;;;;;;;;;5043059;28;19917;-84
2022/11/28 00:50:50;;;;;;;;;;;;;;;;;;5047492;28;19921;-83
2022/11/28 00:53:16;;;;;;;;;;;;;;;;;;5037744;28;19956;-83
2022/11/28 00:55:43;;;;;;;;;;;;;;;;;;5042960;28;19953;-83
2022/11/28 00:58:09;;;;;;;;;;;;;;;;;;5039783;28;19929;-83
2022/11/28 01:00:35;;;;;;;;;;;;;;;;;;5020925;28;19934;-83
2022/11/28 01:03:01;;;;;;;;;;;;;;;;;;5041714;28;20018;-83
2022/11/28 01:05:27;;;;;;;;;;;;;;;;;;5027019;28;19916;-83
2022/11/28 01:07:54;;;;;;;;;;;;;;;;;;5056146;28;19949;-83
2022/11/28 01:10:20;;;;;;;;;;;;;;;;;;5038205;28;19936;-83
2022/11/28 01:12:46;;;;;;;;;;;;;;;;;;5025262;28;19959;-85
2022/11/28 01:15:12;;;;;;;;;;;;;;;;;;5052129;28;20392;-87
2022/11/28 01:17:38;;;;;;;;;;;;;;;;;;5035292;28;19956;-88
2022/11/28 01:20:05;;;;;;;;;;;;;;;;;;5038267;28;19963;-87
2022/11/28 01:22:31;;;;;;;;;;;;;;;;;;5028402;28;19968;-86
2022/11/28 01:24:57;;;;;;;;;;;;;;;;;;5039134;28;19952;-86
2022/11/28 01:27:23;;;;;;;;;;;;;;;;;;5055874;28;19960;-85
2022/11/28 01:29:49;;;;;;;;;;;;;;;;;;5040696;28;19924;-84
2022/11/28 01:32:15;;;;;;;;;;;;;;;;;;5058392;28;20423;-85
2022/11/28 01:34:42;;;;;;;;;;;;;;;;;;5045433;28;19960;-84
2022/11/28 01:37:08;;;;;;;;;;;;;;;;;;5048269;28;19956;-85
2022/11/28 01:39:34;;;;;;;;;;;;;;;;;;5041121;28;19962;-84
2022/11/28 01:42:00;;;;;;;;;;;;;;;;;;5027977;28;19964;-85
2022/11/28 01:44:26;;;;;;;;;;;;;;;;;;5042018;28;19968;-85
2022/11/28 01:49:37;;;;;;;;;;;;;;;;;;5038432;28;19956;-85
2022/11/28 01:52:04;;;;;;;;;;;;;;;;;;5043971;28;19976;-85
2022/11/28 01:54:30;;;;;;;;;;;;;;;;;;5030035;28;19945;-85
2022/11/28 01:56:56;;;;;;;;;;;;;;;;;;5032220;28;19971;-84
2022/11/28 01:59:22;;;;;;;;;;;;;;;;;;5035102;28;20049;-85
2022/11/28 02:01:48;;;;;;;;;;;;;;;;;;5026675;28;19967;-86
2022/11/28 02:04:15;;;;;;;;;;;;;;;;;;5028594;28;19960;-85
2022/11/28 02:06:41;;;;;;;;;;;;;;;;;;5044433;28;19925;-85
2022/11/28 02:09:07;;;;;;;;;;;;;;;;;;5054323;28;19959;-84
2022/11/28 02:11:33;;;;;;;;;;;;;;;;;;5044780;28;19979;-85
2022/11/28 02:13:59;;;;;;;;;;;;;;;;;;5057739;28;24577;-84
2022/11/28 02:16:26;;;;;;;;;;;;;;;;;;5022877;28;20030;-83
2022/11/28 02:18:52;;;;;;;;;;;;;;;;;;5054795;28;19971;-83
2022/11/28 02:21:21;;;;;;;;;;;;;;;;;;5045754;28;20497;-83
2022/11/28 02:23:48;;;;;;;;;;;;;;;;;;5043458;28;19964;-84
2022/11/28 02:26:14;;;;;;;;;;;;;;;;;;5038722;28;19917;-83
2022/11/28 02:28:40;;;;;;;;;;;;;;;;;;5038178;28;19967;-81
2022/11/28 02:31:06;;;;;;;;;;;;;;;;;;5059812;28;19956;-83
2022/11/28 02:33:32;;;;;;;;;;;;;;;;;;5026759;28;19920;-83
2022/11/28 02:35:58;;;;;;;;;;;;;;;;;;5033620;28;19940;-83
2022/11/28 02:38:25;;;;;;;;;;;;;;;;;;5056178;28;20372;-83
2022/11/28 02:40:51;;;;;;;;;;;;;;;;;;5061008;28;19960;-83
2022/11/28 02:43:17;;;;;;;;;;;;;;;;;;5051868;28;19971;-83
2022/11/28 02:45:43;;;;;;;;;;;;;;;;;;5061196;28;19963;-84
2022/11/28 02:48:09;;;;;;;;;;;;;;;;;;5041398;28;19944;-83
2022/11/28 02:50:36;;;;;;;;;;;;;;;;;;5044854;28;20449;-83
2022/11/28 02:53:02;;;;;;;;;;;;;;;;;;5024490;28;19963;-83
2022/11/28 02:55:28;;;;;;;;;;;;;;;;;;5057398;28;19960;-83
2022/11/28 02:57:54;;;;;;;;;;;;;;;;;;5035928;28;19971;-85
2022/11/28 03:00:20;;;;;;;;;;;;;;;;;;5054419;28;19959;-85
2022/11/28 03:02:46;;;;;;;;;;;;;;;;;;5032812;28;19944;-85
2022/11/28 03:05:13;;;;;;;;;;;;;;;;;;5018249;28;20491;-85
2022/11/28 03:07:39;;;;;;;;;;;;;;;;;;5035269;28;19959;-86
2022/11/28 03:10:05;;;;;;;;;;;;;;;;;;5043226;28;20548;-85
2022/11/28 03:12:31;;;;;;;;;;;;;;;;;;5029444;28;19948;-85
2022/11/28 03:14:57;;;;;;;;;;;;;;;;;;5039890;28;20430;-85
2022/11/28 03:17:24;;;;;;;;;;;;;;;;;;5043221;28;20356;-84
2022/11/28 03:19:51;;;;;;;;;;;;;;;;;;5026795;28;19959;-84
2022/11/28 03:22:17;;;;;;;;;;;;;;;;;;5042528;28;20292;-85
2022/11/28 03:24:43;;;;;;;;;;;;;;;;;;5020340;28;20484;-86
2022/11/28 03:27:10;;;;;;;;;;;;;;;;;;5041444;28;19952;-85
2022/11/28 03:29:36;;;;;;;;;;;;;;;;;;5033541;28;20394;-84
2022/11/28 03:32:02;;;;;;;;;;;;;;;;;;5034414;28;19963;-85
2022/11/28 03:34:28;;;;;;;;;;;;;;;;;;5023753;28;19952;-85
2022/11/28 03:36:54;;;;;;;;;;;;;;;;;;5021602;28;19956;-85
2022/11/28 03:39:20;;;;;;;;;;;;;;;;;;5011440;28;19952;-84
2022/11/28 03:41:47;;;;;;;;;;;;;;;;;;5006452;28;19924;-83
2022/11/28 03:44:13;;;;;;;;;;;;;;;;;;5050955;28;19967;-85
2022/11/28 03:46:39;;;;;;;;;;;;;;;;;;5032267;28;20023;-85
2022/11/28 03:49:06;;;;;;;;;;;;;;;;;;5041508;28;19928;-84
2022/11/28 03:51:32;;;;;;;;;;;;;;;;;;5024632;28;19956;-85
2022/11/28 03:53:58;;;;;;;;;;;;;;;;;;5060311;28;19960;-85
2022/11/28 03:56:25;;;;;;;;;;;;;;;;;;5048926;28;19968;-83
2022/11/28 03:58:51;;;;;;;;;;;;;;;;;;5045442;28;19917;-83
2022/11/28 04:01:17;;;;;;;;;;;;;;;;;;5056039;28;19913;-83
2022/11/28 04:03:43;;;;;;;;;;;;;;;;;;5039444;28;19963;-83
2022/11/28 04:06:09;;;;;;;;;;;;;;;;;;5040535;28;19991;-84
2022/11/28 04:08:36;;;;;;;;;;;;;;;;;;5060020;28;19979;-84
2022/11/28 04:11:02;;;;;;;;;;;;;;;;;;5025369;28;20434;-84
2022/11/28 04:13:28;;;;;;;;;;;;;;;;;;5043374;28;19944;-83
2022/11/28 04:15:54;;;;;;;;;;;;;;;;;;5025186;28;19921;-85
2022/11/28 04:18:20;;;;;;;;;;;;;;;;;;5037816;28;19975;-84
2022/11/28 04:20:47;;;;;;;;;;;;;;;;;;5055284;28;20335;-84
2022/11/28 04:23:13;;;;;;;;;;;;;;;;;;5029187;28;20408;-85
2022/11/28 04:25:39;;;;;;;;;;;;;;;;;;5031960;28;19917;-83
2022/11/28 04:28:05;;;;;;;;;;;;;;;;;;5022837;28;20652;-84
2022/11/28 04:30:32;;;;;;;;;;;;;;;;;;5035601;28;20010;-88
2022/11/28 04:32:58;;;;;;;;;;;;;;;;;;5037949;28;20404;-79
2022/11/28 04:35:24;;;;;;;;;;;;;;;;;;5038526;28;20364;-80
2022/11/28 04:37:50;;;;;;;;;;;;;;;;;;5040038;28;19951;-79
2022/11/28 04:40:16;;;;;;;;;;;;;;;;;;5020987;28;20395;-79
2022/11/28 04:42:43;;;;;;;;;;;;;;;;;;5033195;28;19956;-79
2022/11/28 04:45:09;;;;;;;;;;;;;;;;;;5060119;28;19948;-81
2022/11/28 04:47:35;;;;;;;;;;;;;;;;;;5048793;28;19960;-82
2022/11/28 04:50:01;;;;;;;;;;;;;;;;;;5060206;28;19967;-81
2022/11/28 04:52:27;;;;;;;;;;;;;;;;;;5037477;28;19921;-81
2022/11/28 04:54:54;;;;;;;;;;;;;;;;;;5038354;28;19964;-80
2022/11/28 04:57:20;;;;;;;;;;;;;;;;;;5059217;28;20039;-80
2022/11/28 04:59:49;;;;;;;;;;;;;;;;;;5057624;28;19928;-80
2022/11/28 05:02:15;;;;;;;;;;;;;;;;;;5037470;28;19967;-87
2022/11/28 05:04:41;;;;;;;;;;;;;;;;;;5051649;28;19968;-88
2022/11/28 05:07:07;;;;;;;;;;;;;;;;;;5036304;28;20699;-88
2022/11/28 05:09:34;;;;;;;;;;;;;;;;;;5042564;28;19925;-88
2022/11/28 05:12:00;;;;;;;;;;;;;;;;;;5056216;28;19964;-91
2022/11/28 05:14:26;;;;;;;;;;;;;;;;;;5023580;28;19945;-90
2022/11/28 05:16:52;;;;;;;;;;;;;;;;;;5055148;28;19921;-89
2022/11/28 05:19:19;;;;;;;;;;;;;;;;;;5032396;28;19932;-86
2022/11/28 05:21:45;;;;;;;;;;;;;;;;;;5018043;28;19960;-85
2022/11/28 05:24:11;;;;;;;;;;;;;;;;;;5038902;28;19960;-82
2022/11/28 05:26:37;;;;;;;;;;;;;;;;;;5039137;28;19913;-79
2022/11/28 05:29:03;;;;;;;;;;;;;;;;;;5040990;28;20014;-80
2022/11/28 05:31:30;;;;;;;;;;;;;;;;;;5041399;28;19929;-80
2022/11/28 05:33:56;;;;;;;;;;;;;;;;;;5022217;28;20007;-80
2022/11/28 05:36:22;;;;;;;;;;;;;;;;;;5026183;28;19968;-79
2022/11/28 05:38:48;;;;;;;;;;;;;;;;;;5048343;28;19991;-79
2022/11/28 05:41:14;;;;;;;;;;;;;;;;;;5044721;28;19959;-79
2022/11/28 05:43:41;;;;;;;;;;;;;;;;;;5057957;28;20409;-78
2022/11/28 05:46:07;;;;;;;;;;;;;;;;;;5032467;28;19997;-81
2022/11/28 05:48:33;;;;;;;;;;;;;;;;;;5039872;28;19917;-81
2022/11/28 05:50:59;;;;;;;;;;;;;;;;;;5039883;28;20364;-81
2022/11/28 05:53:25;;;;;;;;;;;;;;;;;;5055734;28;19921;-80
2022/11/28 05:55:52;;;;;;;;;;;;;;;;;;5043014;28;20203;-85
2022/11/28 05:58:18;;;;;;;;;;;;;;;;;;5038602;28;19948;-85
2022/11/28 06:00:44;;;;;;;;;;;;;;;;;;5045520;28;19944;-83
2022/11/28 06:03:10;;;;;;;;;;;;;;;;;;5052687;28;19960;-86
2022/11/28 06:05:36;;;;;;;;;;;;;;;;;;5056900;28;20380;-84
2022/11/28 06:08:03;;;;;;;;;;;;;;;;;;5040241;28;19952;-84
2022/11/28 06:10:29;;;;;;;;;;;;;;;;;;5025487;28;19964;-87
2022/11/28 06:12:55;;;;;;;;;;;;;;;;;;5053379;28;19963;-84
2022/11/28 06:15:21;;;;;;;;;;;;;;;;;;5055453;28;19957;-85
2022/11/28 06:17:47;;;;;;;;;;;;;;;;;;5038148;28;19928;-85
2022/11/28 06:20:14;;;;;;;;;;;;;;;;;;5035637;28;19927;-87
2022/11/28 06:22:40;;;;;;;;;;;;;;;;;;5054374;28;19921;-88
2022/11/28 06:25:06;;;;;;;;;;;;;;;;;;5018563;28;19957;-77
2022/11/28 06:27:32;;;;;;;;;;;;;;;;;;5051479;28;19952;-77
2022/11/28 06:29:58;;;;;;;;;;;;;;;;;;5031358;28;20034;-77
2022/11/28 06:32:25;;;;;;;;;;;;;;;;;;5054384;28;19963;-79
2022/11/28 06:34:51;;;;;;;;;;;;;;;;;;5037808;28;19964;-77
2022/11/28 06:37:17;;;;;;;;;;;;;;;;;;5037771;28;19962;-77
2022/11/28 06:39:43;;;;;;;;;;;;;;;;;;5042202;28;19956;-81
2022/11/28 06:42:09;;;;;;;;;;;;;;;;;;5055760;28;19956;-77
2022/11/28 06:44:36;;;;;;;;;;;;;;;;;;5024945;28;20422;-77
2022/11/28 06:47:02;;;;;;;;;;;;;;;;;;5039807;28;19964;-76
2022/11/28 06:49:28;;;;;;;;;;;;;;;;;;5040225;28;19973;-77
2022/11/28 06:51:54;;;;;;;;;;;;;;;;;;5032862;28;20561;-77
2022/11/28 06:54:20;;;;;;;;;;;;;;;;;;5042042;28;19952;-77
2022/11/28 06:56:47;;;;;;;;;;;;;;;;;;5031826;28;20377;-77
2022/11/28 06:59:13;;;;;;;;;;;;;;;;;;5041487;28;19920;-76
2022/11/28 07:01:39;;;;;;;;;;;;;;;;;;5028096;28;19948;-76
2022/11/28 07:04:05;;;;;;;;;;;;;;;;;;5021091;28;19925;-77
2022/11/28 07:06:31;;;;;;;;;;;;;;;;;;5044325;28;19971;-76
2022/11/28 07:08:58;;;;;;;;;;;;;;;;;;5058875;28;20442;-76
2022/11/28 07:11:24;;;;;;;;;;;;;;;;;;5037106;28;19972;-76
2022/11/28 07:13:50;;;;;;;;;;;;;;;;;;5042902;28;19920;-77
2022/11/28 07:16:16;;;;;;;;;;;;;;;;;;5057109;28;20443;-77
2022/11/28 07:18:42;;;;;;;;;;;;;;;;;;5047990;28;19979;-77
2022/11/28 07:21:09;;;;;;;;;;;;;;;;;;5031216;28;19924;-77
2022/11/28 07:23:35;;;;;;;;;;;;;;;;;;5035427;28;20345;-77
2022/11/28 07:26:01;;;;;;;;;;;;;;;;;;5039173;28;20729;-77
2022/11/28 07:28:27;;;;;;;;;;;;;;;;;;5042554;28;20368;-77
2022/11/28 07:30:53;;;;;;;;;;;;;;;;;;5035895;28;19977;-76
2022/11/28 07:33:20;;;;;;;;;;;;;;;;;;5037089;28;19963;-76
2022/11/28 07:35:46;;;;;;;;;;;;;;;;;;5020419;28;19940;-75
2022/11/28 07:38:12;;;;;;;;;;;;;;;;;;5036627;28;19920;-76
2022/11/28 07:40:38;;;;;;;;;;;;;;;;;;5056008;28;20370;-75
2022/11/28 07:43:04;;;;;;;;;;;;;;;;;;5040888;28;19948;-76
2022/11/28 07:45:31;;;;;;;;;;;;;;;;;;5038790;28;19917;-75
2022/11/28 07:47:57;;;;;;;;;;;;;;;;;;5035547;28;19952;-75
2022/11/28 07:50:23;;;;;;;;;;;;;;;;;;5028831;28;19975;-76
2022/11/28 07:52:50;;;;;;;;;;;;;;;;;;5033898;28;19949;-75
2022/11/28 07:55:16;;;;;;;;;;;;;;;;;;5035888;28;19964;-76
2022/11/28 07:57:43;;;;;;;;;;;;;;;;;;5035301;28;19956;-75
2022/11/28 08:00:09;;;;;;;;;;;;;;;;;;5050731;28;19967;-76
2022/11/28 08:02:35;;;;;;;;;;;;;;;;;;5033157;28;20315;-76
2022/11/28 08:05:01;;;;;;;;;;;;;;;;;;5037643;28;20359;-76
2022/11/28 08:07:28;;;;;;;;;;;;;;;;;;5040129;28;19960;-76
2022/11/28 08:09:54;;;;;;;;;;;;;;;;;;5040917;28;19925;-76
2022/11/28 08:12:20;;;;;;;;;;;;;;;;;;5058630;28;19972;-75
2022/11/28 08:14:46;;;;;;;;;;;;;;;;;;5039317;28;20335;-75
2022/11/28 08:17:12;;;;;;;;;;;;;;;;;;5029343;28;19967;-76
2022/11/28 08:19:39;;;;;;;;;;;;;;;;;;5036817;28;19964;-76
2022/11/28 08:22:05;;;;;;;;;;;;;;;;;;5043894;28;19980;-75
2022/11/28 08:24:31;;;;;;;;;;;;;;;;;;5033539;28;19971;-76
2022/11/28 08:26:57;;;;;;;;;;;;;;;;;;5031237;28;19960;-76
2022/11/28 08:29:23;;;;;;;;;;;;;;;;;;5048528;28;19960;-75
2022/11/28 08:31:49;;;;;;;;;;;;;;;;;;5039076;28;19964;-77
2022/11/28 08:34:16;;;;;;;;;;;;;;;;;;5033119;28;19967;-74
2022/11/28 08:36:42;;;;;;;;;;;;;;;;;;5044285;28;19971;-75
2022/11/28 08:39:08;;;;;;;;;;;;;;;;;;5033318;28;19921;-76
2022/11/28 08:41:34;;;;;;;;;;;;;;;;;;5041327;28;19967;-76
2022/11/28 08:44:00;;;;;;;;;;;;;;;;;;5045554;28;19952;-75
2022/11/28 08:46:27;;;;;;;;;;;;;;;;;;5025898;28;19948;-74
2022/11/28 08:48:53;;;;;;;;;;;;;;;;;;5044489;28;19979;-75
2022/11/28 08:51:19;;;;;;;;;;;;;;;;;;5040696;28;19983;-75
2022/11/28 08:53:46;;;;;;;;;;;;;;;;;;5028708;28;20030;-76
2022/11/28 08:56:12;;;;;;;;;;;;;;;;;;5043777;28;19924;-76
2022/11/28 08:58:41;;;;;;;;;;;;;;;;;;5041678;28;19917;-77
2022/11/28 09:01:07;;;;;;;;;;;;;;;;;;5046700;28;20627;-77
2022/11/28 09:03:33;;;;;;;;;;;;;;;;;;5024731;28;19968;-77
2022/11/28 09:06:01;;;;;;;;;;;;;;;;;;5020224;28;20417;-75
2022/11/28 09:08:29;;;;;;;;;;;;;;;;;;5027103;28;19921;-75
2022/11/28 09:10:56;;;;;;;;;;;;;;;;;;5038993;28;20385;-75
2022/11/28 09:13:22;;;;;;;;;;;;;;;;;;5042399;28;19944;-76
2022/11/28 09:15:48;;;;;;;;;;;;;;;;;;5034545;28;19921;-77
2022/11/28 09:18:14;;;;;;;;;;;;;;;;;;5036878;28;19979;-77
2022/11/28 09:20:40;;;;;;;;;;;;;;;;;;5047381;28;19928;-77
2022/11/28 09:23:07;;;;;;;;;;;;;;;;;;5032454;28;19960;-76
2022/11/28 09:25:33;;;;;;;;;;;;;;;;;;5041332;28;19967;-76
2022/11/28 09:28:00;;;;;;;;;;;;;;;;;;5042190;28;20330;-76
2022/11/28 09:30:26;;;;;;;;;;;;;;;;;;5046029;28;19971;-76
2022/11/28 09:32:52;;;;;;;;;;;;;;;;;;5032324;28;19928;-77
2022/11/28 09:35:18;;;;;;;;;;;;;;;;;;5041603;28;19960;-76
2022/11/28 09:37:44;;;;;;;;;;;;;;;;;;5034131;28;19956;-77
2022/11/28 09:40:11;;;;;;;;;;;;;;;;;;5032486;28;20692;-77
2022/11/28 09:42:37;;;;;;;;;;;;;;;;;;5036498;28;19952;-77
2022/11/28 09:45:03;;;;;;;;;;;;;;;;;;5049615;28;20631;-77
2022/11/28 09:47:29;;;;;;;;;;;;;;;;;;5038164;28;19956;-78
2022/11/28 09:49:57;;;;;;;;;;;;;;;;;;5039557;28;19956;-77
2022/11/28 09:52:23;;;;;;;;;;;;;;;;;;5036043;28;19931;-77
2022/11/28 09:54:49;;;;;;;;;;;;;;;;;;5025621;28;19948;-76
2022/11/28 09:57:15;;;;;;;;;;;;;;;;;;5058300;28;19967;-77
2022/11/28 09:59:42;;;;;;;;;;;;;;;;;;5039555;28;19978;-76
2022/11/28 10:02:08;;;;;;;;;;;;;;;;;;5033324;28;19972;-77
2022/11/28 10:04:34;;;;;;;;;;;;;;;;;;5019116;28;19959;-77
2022/11/28 10:07:00;;;;;;;;;;;;;;;;;;5026243;28;19994;-76
2022/11/28 10:09:27;;;;;;;;;;;;;;;;;;5025346;28;19959;-77
2022/11/28 10:11:53;;;;;;;;;;;;;;;;;;5046076;28;19968;-75
2022/11/28 10:14:19;;;;;;;;;;;;;;;;;;5020205;28;19975;-76
2022/11/28 10:16:45;;;;;;;;;;;;;;;;;;5036998;28;19956;-75
2022/11/28 10:19:11;;;;;;;;;;;;;;;;;;5034200;28;19964;-76
2022/11/28 10:21:38;;;;;;;;;;;;;;;;;;5061662;28;20369;-76
2022/11/28 10:24:04;;;;;;;;;;;;;;;;;;5031145;28;19967;-76
2022/11/28 10:26:30;;;;;;;;;;;;;;;;;;5055780;28;19978;-76
2022/11/28 10:28:56;;;;;;;;;;;;;;;;;;5037711;28;19978;-77
2022/11/28 10:31:22;;;;;;;;;;;;;;;;;;5060326;28;20446;-76
2022/11/28 10:33:49;;;;;;;;;;;;;;;;;;5037688;28;19998;-76
2022/11/28 10:36:15;;;;;;;;;;;;;;;;;;5037049;28;19960;-77
2022/11/28 10:38:41;;;;;;;;;;;;;;;;;;5046748;28;19916;-76
2022/11/28 10:41:07;;;;;;;;;;;;;;;;;;5035373;28;20336;-77
2022/11/28 10:43:34;;;;;;;;;;;;;;;;;;5034813;28;20415;-77
2022/11/28 10:46:00;;;;;;;;;;;;;;;;;;5034888;28;19917;-76
2022/11/28 10:48:26;;;;;;;;;;;;;;;;;;5024749;28;19987;-77
2022/11/28 10:50:53;;;;;;;;;;;;;;;;;;5036759;28;20411;-77
2022/11/28 10:53:19;;;;;;;;;;;;;;;;;;5044369;28;20016;-77
2022/11/28 10:55:45;;;;;;;;;;;;;;;;;;5036138;28;19971;-76
2022/11/28 10:58:11;;;;;;;;;;;;;;;;;;5037405;28;19967;-76
2022/11/28 11:00:37;;;;;;;;;;;;;;;;;;5035035;28;19959;-76
2022/11/28 11:03:04;;;;;;;;;;;;;;;;;;5026934;28;19913;-76
2022/11/28 11:05:31;;;;;;;;;;;;;;;;;;5031407;28;19913;-76
2022/11/28 11:07:57;;;;;;;;;;;;;;;;;;5029430;28;19925;-77
2022/11/28 11:10:23;;;;;;;;;;;;;;;;;;5033083;28;19925;-77
2022/11/28 11:12:50;;;;;;;;;;;;;;;;;;5032968;28;20682;-76
2022/11/28 11:15:16;;;;;;;;;;;;;;;;;;5045769;28;20611;-77
2022/11/28 11:17:42;;;;;;;;;;;;;;;;;;5056055;28;19964;-76
2022/11/28 11:20:08;;;;;;;;;;;;;;;;;;5024924;28;19996;-76
2022/11/28 11:22:34;;;;;;;;;;;;;;;;;;5032482;28;19953;-78
2022/11/28 11:25:03;;;;;;;;;;;;;;;;;;5036560;28;20151;-77
2022/11/28 11:27:29;;;;;;;;;;;;;;;;;;5023020;28;20393;-77
2022/11/28 11:29:55;;;;;;;;;;;;;;;;;;5026907;28;19960;-77
2022/11/28 11:32:21;;;;;;;;;;;;;;;;;;5033349;28;19970;-78
2022/11/28 11:34:47;;;;;;;;;;;;;;;;;;5046378;28;19917;-78
2022/11/28 11:37:14;;;;;;;;;;;;;;;;;;5052138;28;19926;-77
2022/11/28 11:39:40;;;;;;;;;;;;;;;;;;5034688;28;19952;-77
2022/11/28 11:42:06;;;;;;;;;;;;;;;;;;5040705;28;20341;-77
2022/11/28 11:44:33;;;;;;;;;;;;;;;;;;5043264;28;19966;-77
2022/11/28 11:47:03;;;;;;;;;;;;;;;;;;5036997;28;19952;-77
2022/11/28 11:49:30;;;;;;;;;;;;;;;;;;5040834;28;19950;-76
2022/11/28 11:51:56;;;;;;;;;;;;;;;;;;5019778;28;20003;-76
2022/11/28 11:54:22;;;;;;;;;;;;;;;;;;5039910;28;20337;-77
2022/11/28 11:56:48;;;;;;;;;;;;;;;;;;5037065;28;19920;-77
2022/11/28 11:59:15;;;;;;;;;;;;;;;;;;5041054;28;19925;-77
2022/11/28 12:01:41;;;;;;;;;;;;;;;;;;5037815;28;19952;-77
2022/11/28 12:04:07;;;;;;;;;;;;;;;;;;5023785;28;19991;-77
2022/11/28 12:06:33;;;;;;;;;;;;;;;;;;5039304;28;19978;-78
2022/11/28 12:08:59;;;;;;;;;;;;;;;;;;5025841;28;19945;-77
2022/11/28 12:11:28;;;;;;;;;;;;;;;;;;5044549;28;19983;-76
2022/11/28 12:13:54;;;;;;;;;;;;;;;;;;5020076;28;19970;-76
2022/11/28 12:16:20;;;;;;;;;;;;;;;;;;5023178;28;19964;-77
2022/11/28 12:18:47;;;;;;;;;;;;;;;;;;5018147;28;19930;-76
2022/11/28 12:21:13;;;;;;;;;;;;;;;;;;5003584;28;19953;-77
2022/11/28 12:23:39;;;;;;;;;;;;;;;;;;5017777;28;19985;-77
2022/11/28 12:26:05;;;;;;;;;;;;;;;;;;5028743;28;19933;-77
2022/11/28 12:28:31;;;;;;;;;;;;;;;;;;5010329;28;19957;-77
2022/11/28 12:30:58;;;;;;;;;;;;;;;;;;5033125;28;20517;-76
2022/11/28 12:33:24;;;;;;;;;;;;;;;;;;5010218;28;19968;-78
2022/11/28 12:35:53;;;;;;;;;;;;;;;;;;5016813;28;19960;-78
2022/11/28 12:38:25;;;;;;;;;;;;;;;;;;5019335;28;19948;-76
2022/11/28 12:40:51;;;;;;;;;;;;;;;;;;5018994;28;19932;-77
2022/11/28 12:43:17;;;;;;;;;;;;;;;;;;5027103;28;20335;-78
2022/11/28 12:45:43;;;;;;;;;;;;;;;;;;5015367;28;19941;-77
2022/11/28 12:48:10;;;;;;;;;;;;;;;;;;5012655;28;20305;-77
2022/11/28 12:50:36;;;;;;;;;;;;;;;;;;5025214;28;19971;-77
2022/11/28 12:53:02;;;;;;;;;;;;;;;;;;5012477;28;20016;-77
2022/11/28 12:55:29;;;;;;;;;;;;;;;;;;5011562;28;19949;-77
2022/11/28 12:57:55;;;;;;;;;;;;;;;;;;5016598;28;19963;-78
2022/11/28 13:00:21;;;;;;;;;;;;;;;;;;5002267;28;19963;-77
2022/11/28 13:02:47;;;;;;;;;;;;;;;;;;5021365;28;20349;-78
2022/11/28 13:05:13;;;;;;;;;;;;;;;;;;5021938;28;19967;-77
2022/11/28 13:07:40;;;;;;;;;;;;;;;;;;5028879;28;19975;-78
2022/11/28 13:10:06;;;;;;;;;;;;;;;;;;5016331;28;19956;-77
2022/11/28 13:12:32;;;;;;;;;;;;;;;;;;5018325;28;19953;-78
2022/11/28 13:14:58;;;;;;;;;;;;;;;;;;5036514;28;19944;-77
2022/11/28 13:17:24;;;;;;;;;;;;;;;;;;5027847;28;19921;-78
2022/11/28 13:19:51;;;;;;;;;;;;;;;;;;5039132;28;20363;-77
2022/11/28 13:22:19;;;;;;;;;;;;;;;;;;5047347;28;19974;-78
2022/11/28 13:24:45;;;;;;;;;;;;;;;;;;5039047;28;19952;-76
2022/11/28 13:27:11;;;;;;;;;;;;;;;;;;5038809;28;19986;-77
2022/11/28 13:29:37;;;;;;;;;;;;;;;;;;5041767;28;19971;-77
2022/11/28 13:32:04;;;;;;;;;;;;;;;;;;5042296;28;21112;-77
2022/11/28 13:34:30;;;;;;;;;;;;;;;;;;5050632;28;19929;-77
2022/11/28 13:36:56;;;;;;;;;;;;;;;;;;5022785;28;19921;-77
2022/11/28 13:39:22;;;;;;;;;;;;;;;;;;5041145;28;19983;-78
2022/11/28 13:41:48;;;;;;;;;;;;;;;;;;5046330;28;19971;-77
2022/11/28 13:44:15;;;;;;;;;;;;;;;;;;5048134;28;20398;-77
2022/11/28 13:46:41;;;;;;;;;;;;;;;;;;5044152;28;19957;-77
2022/11/28 13:49:08;;;;;;;;;;;;;;;;;;5053126;28;22181;-77
2022/11/28 13:51:34;;;;;;;;;;;;;;;;;;5047266;28;19963;-80
2022/11/28 13:54:00;;;;;;;;;;;;;;;;;;5049140;28;20016;-77
2022/11/28 13:56:27;;;;;;;;;;;;;;;;;;5066295;28;19924;-79
2022/11/28 13:58:53;;;;;;;;;;;;;;;;;;5039552;28;20401;-77
2022/11/28 14:01:19;;;;;;;;;;;;;;;;;;5047227;28;19945;-77
2022/11/28 14:03:45;;;;;;;;;;;;;;;;;;5041700;28;19964;-77
2022/11/28 14:06:11;;;;;;;;;;;;;;;;;;5035132;28;19975;-77
2022/11/28 14:08:37;;;;;;;;;;;;;;;;;;5041436;28;19975;-77
2022/11/28 14:11:04;;;;;;;;;;;;;;;;;;5030875;28;20355;-78
2022/11/28 14:13:30;;;;;;;;;;;;;;;;;;5035547;28;19959;-78
2022/11/28 14:15:56;;;;;;;;;;;;;;;;;;5039937;28;19921;-77
2022/11/28 14:18:22;;;;;;;;;;;;;;;;;;5028716;28;20419;-78
2022/11/28 14:20:49;;;;;;;;;;;;;;;;;;5043553;28;19916;-78
2022/11/28 14:23:15;;;;;;;;;;;;;;;;;;5061985;28;20003;-78
2022/11/28 14:25:43;;;;;;;;;;;;;;;;;;5030487;28;19928;-77
2022/11/28 14:28:10;;;;;;;;;;;;;;;;;;5042477;28;19960;-78
2022/11/28 14:30:36;;;;;;;;;;;;;;;;;;5035878;28;19967;-77
2022/11/28 14:33:02;;;;;;;;;;;;;;;;;;5043914;28;21040;-78
2022/11/28 14:35:28;;;;;;;;;;;;;;;;;;5042757;28;19948;-78
2022/11/28 14:37:56;;;;;;;;;;;;;;;;;;5037755;28;19983;-77
2022/11/28 14:40:22;;;;;;;;;;;;;;;;;;5043721;28;19917;-77
2022/11/28 14:42:48;;;;;;;;;;;;;;;;;;5035882;28;19953;-77
2022/11/28 14:45:14;;;;;;;;;;;;;;;;;;5042383;28;19959;-76
2022/11/28 14:47:45;;;;;;;;;;;;;;;;;;5032758;28;20612;-77
2022/11/28 14:50:19;;;;;;;;;;;;;;;;;;5017045;28;19978;-77
2022/11/28 14:52:46;;;;;;;;;;;;;;;;;;5024605;28;19956;-78
2022/11/28 14:55:12;;;;;;;;;;;;;;;;;;5038729;28;20455;-77
2022/11/28 14:57:39;;;;;;;;;;;;;;;;;;5023656;28;19998;-78
2022/11/28 15:00:06;;;;;;;;;;;;;;;;;;5034421;28;20409;-77
2022/11/28 15:02:33;;;;;;;;;;;;;;;;;;5020535;28;21038;-77
2022/11/28 15:04:59;;;;;;;;;;;;;;;;;;5033692;28;19966;-77
2022/11/28 15:07:25;;;;;;;;;;;;;;;;;;5036228;28;19913;-77
2022/11/28 15:09:52;;;;;;;;;;;;;;;;;;5046763;28;19933;-77
2022/11/28 15:12:18;;;;;;;;;;;;;;;;;;5055874;28;19929;-77
2022/11/28 15:14:44;;;;;;;;;;;;;;;;;;5035669;28;19956;-77
2022/11/28 15:17:10;;;;;;;;;;;;;;;;;;5053088;28;20680;-77
2022/11/28 15:19:37;;;;;;;;;;;;;;;;;;5051122;28;19976;-77
2022/11/28 15:22:03;;;;;;;;;;;;;;;;;;5037479;28;19964;-77
2022/11/28 15:24:29;;;;;;;;;;;;;;;;;;5055382;28;19928;-77
2022/11/28 15:26:55;;;;;;;;;;;;;;;;;;5053764;28;19952;-77
2022/11/28 15:29:22;;;;;;;;;;;;;;;;;;5059437;28;20494;-77
2022/11/28 15:31:48;;;;;;;;;;;;;;;;;;5035368;28;20460;-77
2022/11/28 15:34:14;;;;;;;;;;;;;;;;;;5044966;28;20350;-78
2022/11/28 15:36:40;;;;;;;;;;;;;;;;;;5051490;28;19949;-77
2022/11/28 15:39:07;;;;;;;;;;;;;;;;;;5037828;28;20441;-77
2022/11/28 15:41:33;;;;;;;;;;;;;;;;;;5033839;28;19952;-77
2022/11/28 15:43:59;;;;;;;;;;;;;;;;;;5038239;28;19956;-77
2022/11/28 15:46:25;;;;;;;;;;;;;;;;;;5036175;28;19975;-77
2022/11/28 15:48:52;;;;;;;;;;;;;;;;;;5024897;28;20535;-77
2022/11/28 15:51:18;;;;;;;;;;;;;;;;;;5041367;28;19982;-77
2022/11/28 15:53:44;;;;;;;;;;;;;;;;;;5037022;28;19956;-77
2022/11/28 15:56:10;;;;;;;;;;;;;;;;;;5025834;28;20009;-75
2022/11/28 15:58:37;;;;;;;;;;;;;;;;;;5028839;28;19974;-75
2022/11/28 16:01:03;;;;;;;;;;;;;;;;;;5042616;28;19963;-77
2022/11/28 16:03:29;;;;;;;;;;;;;;;;;;5036481;28;19924;-77
2022/11/28 16:05:56;;;;;;;;;;;;;;;;;;5025514;28;20062;-77
2022/11/28 16:08:22;;;;;;;;;;;;;;;;;;5026744;28;19948;-77
2022/11/28 16:10:48;;;;;;;;;;;;;;;;;;5030529;28;20665;-77
2022/11/28 16:13:14;;;;;;;;;;;;;;;;;;5016999;28;19921;-78
2022/11/28 16:15:40;;;;;;;;;;;;;;;;;;5036213;28;19972;-76
2022/11/28 16:18:07;;;;;;;;;;;;;;;;;;5017076;28;19964;-76
2022/11/28 16:20:33;;;;;;;;;;;;;;;;;;5051540;28;19953;-77
2022/11/28 16:23:01;;;;;;;;;;;;;;;;;;5037566;28;19964;-77
2022/11/28 16:25:28;;;;;;;;;;;;;;;;;;5038330;28;20423;-77
2022/11/28 16:27:56;;;;;;;;;;;;;;;;;;5028992;28;19952;-76
2022/11/28 16:30:22;;;;;;;;;;;;;;;;;;5034816;28;19964;-77
2022/11/28 16:32:48;;;;;;;;;;;;;;;;;;5015539;28;20789;-76
2022/11/28 16:35:14;;;;;;;;;;;;;;;;;;5039210;28;19963;-77
2022/11/28 16:37:41;;;;;;;;;;;;;;;;;;5038864;28;19917;-76
2022/11/28 16:40:07;;;;;;;;;;;;;;;;;;5049366;28;19963;-77
2022/11/28 16:42:33;;;;;;;;;;;;;;;;;;5035452;28;19949;-76